الصفحة الرئيسية
METAR-TAF:

METAR-TAF

مطار :

مطار نورمان مانلي الدولي

كينغستون, جامايكا

دائرة عرض: 17-56N, خط طول: 076-47W, ارتفاع: 3 متر

مراقبة الطقس الحالي

تاريخ ووقت الإصدار 30 دقيقة قبل الساعة 03:00UTC
ريح 4 عقدة من الشمال
درجة الحرارة 28°درجة مئوية
الرطوبة 74%
ضغط 1013 hPa
الرؤية 10 كم أو أكثر
غيوم قليلة على ارتفاع 2200 قدم

METAR: MKJP 230300Z 35004KT 9999 FEW022 28/23 Q1013

زمن: 22:30 (03:30 UTC)

توقعات

تاريخ ووقت الإصدار 4ساعات و 15 دقيقة قبل الساعة 23:15UTC
التوقعات صالحة من23 الساعة 00 UTC إلى 23 الساعة 24 UTC
ريح 7 عقدة من الجنوب الشرقي
الرؤية 10 كم أو أكثر
غيوم قليلة على ارتفاع 2200 قدم
أصبح
من 23 الساعة 01 UTC إلى 23 الساعة 03 UTC
ريح 7 عقدة من الشمال
أصبح
من 23 الساعة 15 UTC إلى 23 الساعة 17 UTC
ريح 12 عقدة من الجنوب
غيوم متفرقة على ارتفاع 2200 قدم

TAF: MKJP 222315Z 2300/2324 14007KT 9999 FEW022 BECMG 2301/2303 35007KT BECMG 2315/2317 17012KT SCT022

أرصاد الطقس والتوقعات من أكثر من 4000 مطار (تقارير الطقس للمطار METAR والتنبؤ بالطقس بالمطارTAF).

المحطات المتاحة هي النقط الصفراء والحمراء على الخريطة.

حرك المؤشر فوق النقطة لمعرفة اسم المحطة.

ثم انقر لمعرفة أرصاد وتوقعات الطقس.

لتغيير الخارطة: اضغط على الأزرار الخضراء مع رمز الصليب الأسود للتكبير. على الزر الأخضر مع شرطة للتصغير، أو على الأسهم الخضراء للخرائط المجاورة.


METAR-TAF: